sensor_id;sensor_type;location;lat;lon;timestamp;temperature;humidity
10722;DHT22;5412;59.450;18.124;2023-10-19T00:00:05;3.90;99.90
10722;DHT22;5412;59.450;18.124;2023-10-19T00:02:51;3.90;99.90
10722;DHT22;5412;59.450;18.124;2023-10-19T00:05:17;4.00;99.90
10722;DHT22;5412;59.450;18.124;2023-10-19T00:07:43;4.00;99.90
10722;DHT22;5412;59.450;18.124;2023-10-19T00:10:09;3.90;99.90
10722;DHT22;5412;59.450;18.124;2023-10-19T00:12:36;3.80;99.90
10722;DHT22;5412;59.450;18.124;2023-10-19T00:15:03;3.90;99.90
10722;DHT22;5412;59.450;18.124;2023-10-19T00:17:29;4.00;99.90
10722;DHT22;5412;59.450;18.124;2023-10-19T00:19:58;4.00;99.90
10722;DHT22;5412;59.450;18.124;2023-10-19T00:22:43;4.00;99.90
10722;DHT22;5412;59.450;18.124;2023-10-19T00:25:09;4.00;99.90
10722;DHT22;5412;59.450;18.124;2023-10-19T00:27:39;4.00;99.90
10722;DHT22;5412;59.450;18.124;2023-10-19T00:30:06;3.90;99.90
10722;DHT22;5412;59.450;18.124;2023-10-19T00:32:32;3.80;99.90
10722;DHT22;5412;59.450;18.124;2023-10-19T00:34:59;3.90;99.90
10722;DHT22;5412;59.450;18.124;2023-10-19T00:37:34;3.80;99.90
10722;DHT22;5412;59.450;18.124;2023-10-19T00:40:11;3.80;99.90
10722;DHT22;5412;59.450;18.124;2023-10-19T00:43:02;3.70;99.90
10722;DHT22;5412;59.450;18.124;2023-10-19T00:45:30;3.50;99.90
10722;DHT22;5412;59.450;18.124;2023-10-19T00:47:59;3.50;99.90
10722;DHT22;5412;59.450;18.124;2023-10-19T00:50:25;3.60;99.90
10722;DHT22;5412;59.450;18.124;2023-10-19T00:52:56;3.50;99.90
10722;DHT22;5412;59.450;18.124;2023-10-19T00:55:24;3.60;99.90
10722;DHT22;5412;59.450;18.124;2023-10-19T00:57:53;3.50;99.90
10722;DHT22;5412;59.450;18.124;2023-10-19T01:00:20;3.50;99.90
10722;DHT22;5412;59.450;18.124;2023-10-19T01:03:00;3.50;99.90
10722;DHT22;5412;59.450;18.124;2023-10-19T01:05:26;3.50;99.90
10722;DHT22;5412;59.450;18.124;2023-10-19T01:08:01;3.50;99.90
10722;DHT22;5412;59.450;18.124;2023-10-19T01:10:28;3.50;99.90
10722;DHT22;5412;59.450;18.124;2023-10-19T01:12:54;3.60;99.90
10722;DHT22;5412;59.450;18.124;2023-10-19T01:15:21;3.60;99.90
10722;DHT22;5412;59.450;18.124;2023-10-19T01:17:54;3.60;99.90
10722;DHT22;5412;59.450;18.124;2023-10-19T01:20:31;3.70;99.90
10722;DHT22;5412;59.450;18.124;2023-10-19T01:25:53;3.80;99.90
10722;DHT22;5412;59.450;18.124;2023-10-19T01:28:20;3.80;99.90
10722;DHT22;5412;59.450;18.124;2023-10-19T01:30:50;3.90;99.90
10722;DHT22;5412;59.450;18.124;2023-10-19T01:33:19;4.00;99.90
10722;DHT22;5412;59.450;18.124;2023-10-19T01:35:45;4.00;99.90
10722;DHT22;5412;59.450;18.124;2023-10-19T01:38:30;4.10;99.90
10722;DHT22;5412;59.450;18.124;2023-10-19T01:41:00;3.90;99.90
10722;DHT22;5412;59.450;18.124;2023-10-19T01:43:29;4.00;99.90
10722;DHT22;5412;59.450;18.124;2023-10-19T01:46:01;3.80;99.90
10722;DHT22;5412;59.450;18.124;2023-10-19T01:48:31;3.80;99.90
10722;DHT22;5412;59.450;18.124;2023-10-19T01:51:05;3.80;99.90
10722;DHT22;5412;59.450;18.124;2023-10-19T01:53:32;3.80;99.90
10722;DHT22;5412;59.450;18.124;2023-10-19T01:55:58;3.70;99.90
10722;DHT22;5412;59.450;18.124;2023-10-19T01:58:25;3.70;99.90
10722;DHT22;5412;59.450;18.124;2023-10-19T02:00:54;3.70;99.90
10722;DHT22;5412;59.450;18.124;2023-10-19T02:03:21;3.70;99.90
10722;DHT22;5412;59.450;18.124;2023-10-19T02:06:00;3.60;99.90
10722;DHT22;5412;59.450;18.124;2023-10-19T02:08:31;3.60;99.90
10722;DHT22;5412;59.450;18.124;2023-10-19T02:10:57;3.50;99.90
10722;DHT22;5412;59.450;18.124;2023-10-19T02:13:23;3.50;99.90
10722;DHT22;5412;59.450;18.124;2023-10-19T02:15:49;3.60;99.90
10722;DHT22;5412;59.450;18.124;2023-10-19T02:18:16;3.70;99.90
10722;DHT22;5412;59.450;18.124;2023-10-19T02:20:43;3.60;99.90
10722;DHT22;5412;59.450;18.124;2023-10-19T02:23:13;3.50;99.90
10722;DHT22;5412;59.450;18.124;2023-10-19T02:25:40;3.50;99.90
10722;DHT22;5412;59.450;18.124;2023-10-19T02:28:06;3.50;99.90
10722;DHT22;5412;59.450;18.124;2023-10-19T02:30:35;3.50;99.90
10722;DHT22;5412;59.450;18.124;2023-10-19T02:33:01;3.60;99.90
10722;DHT22;5412;59.450;18.124;2023-10-19T02:35:29;3.50;99.90
10722;DHT22;5412;59.450;18.124;2023-10-19T02:37:55;3.30;99.90
10722;DHT22;5412;59.450;18.124;2023-10-19T02:40:21;3.20;99.90
10722;DHT22;5412;59.450;18.124;2023-10-19T02:42:49;3.20;99.90
10722;DHT22;5412;59.450;18.124;2023-10-19T02:45:19;3.20;99.90
10722;DHT22;5412;59.450;18.124;2023-10-19T02:47:45;3.20;99.90
10722;DHT22;5412;59.450;18.124;2023-10-19T02:50:12;3.30;99.90
10722;DHT22;5412;59.450;18.124;2023-10-19T02:52:48;3.30;99.90
10722;DHT22;5412;59.450;18.124;2023-10-19T02:55:14;3.30;99.90
10722;DHT22;5412;59.450;18.124;2023-10-19T02:57:43;3.30;99.90
10722;DHT22;5412;59.450;18.124;2023-10-19T03:00:12;3.30;99.90
10722;DHT22;5412;59.450;18.124;2023-10-19T03:02:41;3.30;99.90
10722;DHT22;5412;59.450;18.124;2023-10-19T03:05:07;3.20;99.90
10722;DHT22;5412;59.450;18.124;2023-10-19T03:07:42;3.30;99.90
10722;DHT22;5412;59.450;18.124;2023-10-19T03:10:11;3.40;99.90
10722;DHT22;5412;59.450;18.124;2023-10-19T03:12:57;3.40;99.90
10722;DHT22;5412;59.450;18.124;2023-10-19T03:15:23;3.30;99.90
10722;DHT22;5412;59.450;18.124;2023-10-19T03:17:49;3.40;99.90
10722;DHT22;5412;59.450;18.124;2023-10-19T03:20:15;3.40;99.90
10722;DHT22;5412;59.450;18.124;2023-10-19T03:22:43;3.40;99.90
10722;DHT22;5412;59.450;18.124;2023-10-19T03:25:13;3.30;99.90
10722;DHT22;5412;59.450;18.124;2023-10-19T03:27:57;3.10;99.90
10722;DHT22;5412;59.450;18.124;2023-10-19T03:30:31;2.80;99.90
10722;DHT22;5412;59.450;18.124;2023-10-19T03:32:56;2.70;99.90
10722;DHT22;5412;59.450;18.124;2023-10-19T03:35:24;2.70;99.90
10722;DHT22;5412;59.450;18.124;2023-10-19T03:37:50;2.80;99.90
10722;DHT22;5412;59.450;18.124;2023-10-19T03:40:17;2.80;99.90
10722;DHT22;5412;59.450;18.124;2023-10-19T03:42:52;2.80;99.90
10722;DHT22;5412;59.450;18.124;2023-10-19T03:45:20;2.80;99.90
10722;DHT22;5412;59.450;18.124;2023-10-19T03:48:01;2.80;99.90
10722;DHT22;5412;59.450;18.124;2023-10-19T03:50:32;2.60;99.90
10722;DHT22;5412;59.450;18.124;2023-10-19T03:52:58;2.40;99.90
10722;DHT22;5412;59.450;18.124;2023-10-19T03:55:24;2.50;99.90
10722;DHT22;5412;59.450;18.124;2023-10-19T03:57:50;2.70;99.90
10722;DHT22;5412;59.450;18.124;2023-10-19T04:00:19;2.60;99.90
10722;DHT22;5412;59.450;18.124;2023-10-19T04:02:50;2.70;99.90
10722;DHT22;5412;59.450;18.124;2023-10-19T04:05:18;2.70;99.90
10722;DHT22;5412;59.450;18.124;2023-10-19T04:07:52;2.50;99.90
10722;DHT22;5412;59.450;18.124;2023-10-19T04:10:24;2.60;99.90
10722;DHT22;5412;59.450;18.124;2023-10-19T04:12:56;2.50;99.90
10722;DHT22;5412;59.450;18.124;2023-10-19T04:15:25;2.50;99.90
10722;DHT22;5412;59.450;18.124;2023-10-19T04:17:52;2.40;99.90
10722;DHT22;5412;59.450;18.124;2023-10-19T04:20:24;2.30;99.90
10722;DHT22;5412;59.450;18.124;2023-10-19T04:23:07;2.50;99.90
10722;DHT22;5412;59.450;18.124;2023-10-19T04:25:36;2.50;99.90
10722;DHT22;5412;59.450;18.124;2023-10-19T04:28:02;2.40;99.90
10722;DHT22;5412;59.450;18.124;2023-10-19T04:30:28;2.40;99.90
10722;DHT22;5412;59.450;18.124;2023-10-19T04:32:55;2.40;99.90
10722;DHT22;5412;59.450;18.124;2023-10-19T04:35:23;2.40;99.90
10722;DHT22;5412;59.450;18.124;2023-10-19T04:37:53;2.40;99.90
10722;DHT22;5412;59.450;18.124;2023-10-19T04:40:22;2.50;99.90
10722;DHT22;5412;59.450;18.124;2023-10-19T04:42:52;2.60;99.90
10722;DHT22;5412;59.450;18.124;2023-10-19T04:45:18;2.50;99.90
10722;DHT22;5412;59.450;18.124;2023-10-19T04:47:44;2.40;99.90
10722;DHT22;5412;59.450;18.124;2023-10-19T04:50:10;2.30;99.90
10722;DHT22;5412;59.450;18.124;2023-10-19T04:52:36;2.20;99.90
10722;DHT22;5412;59.450;18.124;2023-10-19T04:55:02;2.30;99.90
10722;DHT22;5412;59.450;18.124;2023-10-19T04:57:29;2.60;99.90
10722;DHT22;5412;59.450;18.124;2023-10-19T04:59:56;2.40;99.90
10722;DHT22;5412;59.450;18.124;2023-10-19T05:02:22;2.40;99.90
10722;DHT22;5412;59.450;18.124;2023-10-19T05:04:48;2.40;99.90
10722;DHT22;5412;59.450;18.124;2023-10-19T05:07:14;2.30;99.90
10722;DHT22;5412;59.450;18.124;2023-10-19T05:09:43;2.20;99.90
10722;DHT22;5412;59.450;18.124;2023-10-19T05:12:10;2.20;99.90
10722;DHT22;5412;59.450;18.124;2023-10-19T05:14:37;2.40;99.90
10722;DHT22;5412;59.450;18.124;2023-10-19T05:17:03;2.30;99.90
10722;DHT22;5412;59.450;18.124;2023-10-19T05:19:35;2.50;99.90
10722;DHT22;5412;59.450;18.124;2023-10-19T05:22:06;2.70;99.90
10722;DHT22;5412;59.450;18.124;2023-10-19T05:24:32;2.80;99.90
10722;DHT22;5412;59.450;18.124;2023-10-19T05:26:58;2.90;99.90
10722;DHT22;5412;59.450;18.124;2023-10-19T05:29:23;3.10;99.90
10722;DHT22;5412;59.450;18.124;2023-10-19T05:31:51;3.10;99.90
10722;DHT22;5412;59.450;18.124;2023-10-19T05:34:22;2.90;99.90
10722;DHT22;5412;59.450;18.124;2023-10-19T05:36:47;3.10;99.90
10722;DHT22;5412;59.450;18.124;2023-10-19T05:39:17;2.90;99.90
10722;DHT22;5412;59.450;18.124;2023-10-19T05:41:43;2.80;99.90
10722;DHT22;5412;59.450;18.124;2023-10-19T05:44:09;2.70;99.90
10722;DHT22;5412;59.450;18.124;2023-10-19T05:46:35;2.60;99.90
10722;DHT22;5412;59.450;18.124;2023-10-19T05:49:01;2.50;99.90
10722;DHT22;5412;59.450;18.124;2023-10-19T05:51:32;2.50;99.90
10722;DHT22;5412;59.450;18.124;2023-10-19T05:53:58;2.60;99.90
10722;DHT22;5412;59.450;18.124;2023-10-19T05:56:33;2.50;99.90
10722;DHT22;5412;59.450;18.124;2023-10-19T05:59:01;2.40;99.90
10722;DHT22;5412;59.450;18.124;2023-10-19T06:01:27;2.20;99.90
10722;DHT22;5412;59.450;18.124;2023-10-19T06:03:59;2.20;99.90
10722;DHT22;5412;59.450;18.124;2023-10-19T06:06:24;2.20;99.90
10722;DHT22;5412;59.450;18.124;2023-10-19T06:08:51;2.20;99.90
10722;DHT22;5412;59.450;18.124;2023-10-19T06:11:19;2.30;99.90
10722;DHT22;5412;59.450;18.124;2023-10-19T06:13:46;2.40;99.90
10722;DHT22;5412;59.450;18.124;2023-10-19T06:16:13;2.40;99.90
10722;DHT22;5412;59.450;18.124;2023-10-19T06:18:39;2.40;99.90
10722;DHT22;5412;59.450;18.124;2023-10-19T06:21:05;2.60;99.90
10722;DHT22;5412;59.450;18.124;2023-10-19T06:23:31;2.70;99.90
10722;DHT22;5412;59.450;18.124;2023-10-19T06:25:57;2.40;99.90
10722;DHT22;5412;59.450;18.124;2023-10-19T06:28:26;2.50;99.90
10722;DHT22;5412;59.450;18.124;2023-10-19T06:30:52;2.60;99.90
10722;DHT22;5412;59.450;18.124;2023-10-19T06:33:18;2.60;99.90
10722;DHT22;5412;59.450;18.124;2023-10-19T06:35:45;2.80;99.90
10722;DHT22;5412;59.450;18.124;2023-10-19T06:38:10;2.80;99.90
10722;DHT22;5412;59.450;18.124;2023-10-19T06:40:36;2.60;99.90
10722;DHT22;5412;59.450;18.124;2023-10-19T06:43:02;2.70;99.90
10722;DHT22;5412;59.450;18.124;2023-10-19T06:45:28;2.60;99.90
10722;DHT22;5412;59.450;18.124;2023-10-19T06:47:57;2.80;99.90
10722;DHT22;5412;59.450;18.124;2023-10-19T06:50:26;2.60;99.90
10722;DHT22;5412;59.450;18.124;2023-10-19T06:52:52;2.70;99.90
10722;DHT22;5412;59.450;18.124;2023-10-19T06:55:20;2.70;99.90
10722;DHT22;5412;59.450;18.124;2023-10-19T06:57:50;2.80;99.90
10722;DHT22;5412;59.450;18.124;2023-10-19T07:00:18;2.90;99.90
10722;DHT22;5412;59.450;18.124;2023-10-19T07:02:50;3.00;99.90
10722;DHT22;5412;59.450;18.124;2023-10-19T07:05:17;3.10;99.90
10722;DHT22;5412;59.450;18.124;2023-10-19T07:07:56;3.10;99.90
10722;DHT22;5412;59.450;18.124;2023-10-19T07:10:24;3.10;99.90
10722;DHT22;5412;59.450;18.124;2023-10-19T07:12:52;3.30;99.90
10722;DHT22;5412;59.450;18.124;2023-10-19T07:15:22;3.30;99.90
10722;DHT22;5412;59.450;18.124;2023-10-19T07:17:50;3.40;99.90
10722;DHT22;5412;59.450;18.124;2023-10-19T07:20:20;3.40;99.90
10722;DHT22;5412;59.450;18.124;2023-10-19T07:22:57;3.50;99.90
10722;DHT22;5412;59.450;18.124;2023-10-19T07:25:25;3.50;99.90
10722;DHT22;5412;59.450;18.124;2023-10-19T07:27:54;3.40;99.90
10722;DHT22;5412;59.450;18.124;2023-10-19T07:30:25;3.30;99.90
10722;DHT22;5412;59.450;18.124;2023-10-19T07:32:54;3.10;99.90
10722;DHT22;5412;59.450;18.124;2023-10-19T07:35:24;3.30;99.90
10722;DHT22;5412;59.450;18.124;2023-10-19T07:37:51;3.50;99.90
10722;DHT22;5412;59.450;18.124;2023-10-19T07:40:17;3.70;99.90
10722;DHT22;5412;59.450;18.124;2023-10-19T07:42:46;3.60;99.90
10722;DHT22;5412;59.450;18.124;2023-10-19T07:45:14;3.60;99.90
10722;DHT22;5412;59.450;18.124;2023-10-19T07:47:41;3.70;99.90
10722;DHT22;5412;59.450;18.124;2023-10-19T07:50:11;3.60;99.90
10722;DHT22;5412;59.450;18.124;2023-10-19T07:52:49;3.40;99.90
10722;DHT22;5412;59.450;18.124;2023-10-19T07:55:19;3.50;99.90
10722;DHT22;5412;59.450;18.124;2023-10-19T07:57:45;3.60;99.90
10722;DHT22;5412;59.450;18.124;2023-10-19T08:00:12;3.60;99.90
10722;DHT22;5412;59.450;18.124;2023-10-19T08:02:43;3.70;99.90
10722;DHT22;5412;59.450;18.124;2023-10-19T08:05:12;3.80;99.90
10722;DHT22;5412;59.450;18.124;2023-10-19T08:07:39;4.00;99.90
10722;DHT22;5412;59.450;18.124;2023-10-19T08:10:09;4.30;99.90
10722;DHT22;5412;59.450;18.124;2023-10-19T08:12:37;4.20;99.90
10722;DHT22;5412;59.450;18.124;2023-10-19T08:15:03;4.30;99.90
10722;DHT22;5412;59.450;18.124;2023-10-19T08:17:30;4.30;99.90
10722;DHT22;5412;59.450;18.124;2023-10-19T08:19:56;4.30;99.90
10722;DHT22;5412;59.450;18.124;2023-10-19T08:22:23;4.40;99.90
10722;DHT22;5412;59.450;18.124;2023-10-19T08:24:49;4.40;99.90
10722;DHT22;5412;59.450;18.124;2023-10-19T08:27:15;4.40;99.90
10722;DHT22;5412;59.450;18.124;2023-10-19T08:29:43;4.40;99.90
10722;DHT22;5412;59.450;18.124;2023-10-19T08:32:08;4.30;99.90
10722;DHT22;5412;59.450;18.124;2023-10-19T08:34:37;4.50;99.90
10722;DHT22;5412;59.450;18.124;2023-10-19T08:37:05;4.50;99.90
10722;DHT22;5412;59.450;18.124;2023-10-19T08:39:32;4.60;99.90
10722;DHT22;5412;59.450;18.124;2023-10-19T08:42:04;4.50;99.90
10722;DHT22;5412;59.450;18.124;2023-10-19T08:44:33;4.70;99.90
10722;DHT22;5412;59.450;18.124;2023-10-19T08:47:01;4.60;99.90
10722;DHT22;5412;59.450;18.124;2023-10-19T08:49:27;4.60;99.90
10722;DHT22;5412;59.450;18.124;2023-10-19T08:51:54;4.70;99.90
10722;DHT22;5412;59.450;18.124;2023-10-19T08:54:20;4.90;99.90
10722;DHT22;5412;59.450;18.124;2023-10-19T08:56:46;5.10;99.90
10722;DHT22;5412;59.450;18.124;2023-10-19T08:59:15;5.00;99.90
10722;DHT22;5412;59.450;18.124;2023-10-19T09:01:41;4.90;99.90
10722;DHT22;5412;59.450;18.124;2023-10-19T09:04:11;4.90;99.90
10722;DHT22;5412;59.450;18.124;2023-10-19T09:06:39;4.70;99.90
10722;DHT22;5412;59.450;18.124;2023-10-19T09:09:12;4.60;99.90
10722;DHT22;5412;59.450;18.124;2023-10-19T09:11:51;4.70;99.90
10722;DHT22;5412;59.450;18.124;2023-10-19T09:14:38;4.60;99.90
10722;DHT22;5412;59.450;18.124;2023-10-19T09:17:09;4.70;99.90
10722;DHT22;5412;59.450;18.124;2023-10-19T09:19:39;4.50;99.90
10722;DHT22;5412;59.450;18.124;2023-10-19T09:22:06;4.40;99.90
10722;DHT22;5412;59.450;18.124;2023-10-19T09:24:45;4.60;99.90
10722;DHT22;5412;59.450;18.124;2023-10-19T09:27:12;4.40;99.90
10722;DHT22;5412;59.450;18.124;2023-10-19T09:29:39;4.30;99.90
10722;DHT22;5412;59.450;18.124;2023-10-19T09:32:07;4.50;99.90
10722;DHT22;5412;59.450;18.124;2023-10-19T09:34:35;4.50;99.90
10722;DHT22;5412;59.450;18.124;2023-10-19T09:37:02;4.60;99.90
10722;DHT22;5412;59.450;18.124;2023-10-19T09:39:31;4.50;99.90
10722;DHT22;5412;59.450;18.124;2023-10-19T09:42:08;4.40;99.90
10722;DHT22;5412;59.450;18.124;2023-10-19T09:44:44;4.30;99.90
10722;DHT22;5412;59.450;18.124;2023-10-19T09:47:13;4.30;99.90
10722;DHT22;5412;59.450;18.124;2023-10-19T09:49:43;4.20;99.90
10722;DHT22;5412;59.450;18.124;2023-10-19T09:52:10;4.50;99.90
10722;DHT22;5412;59.450;18.124;2023-10-19T09:57:53;4.50;99.90
10722;DHT22;5412;59.450;18.124;2023-10-19T10:00:21;4.50;99.90
10722;DHT22;5412;59.450;18.124;2023-10-19T10:02:51;4.50;99.90
10722;DHT22;5412;59.450;18.124;2023-10-19T10:10:50;4.60;99.90
10722;DHT22;5412;59.450;18.124;2023-10-19T10:15:56;4.70;99.90
10722;DHT22;5412;59.450;18.124;2023-10-19T10:18:32;4.80;99.90
10722;DHT22;5412;59.450;18.124;2023-10-19T10:21:13;4.80;99.90
10722;DHT22;5412;59.450;18.124;2023-10-19T10:26:16;4.90;99.90
10722;DHT22;5412;59.450;18.124;2023-10-19T10:29:13;5.00;99.90
10722;DHT22;5412;59.450;18.124;2023-10-19T10:31:51;4.80;99.90
10722;DHT22;5412;59.450;18.124;2023-10-19T10:37:07;4.70;99.90
10722;DHT22;5412;59.450;18.124;2023-10-19T10:39:40;4.70;99.90
10722;DHT22;5412;59.450;18.124;2023-10-19T10:42:10;4.70;99.90
10722;DHT22;5412;59.450;18.124;2023-10-19T10:44:47;4.70;99.90
10722;DHT22;5412;59.450;18.124;2023-10-19T10:47:21;4.70;99.90
10722;DHT22;5412;59.450;18.124;2023-10-19T10:49:51;4.90;99.90
10722;DHT22;5412;59.450;18.124;2023-10-19T10:54:50;5.10;99.90
10722;DHT22;5412;59.450;18.124;2023-10-19T10:57:16;5.10;99.90
10722;DHT22;5412;59.450;18.124;2023-10-19T10:59:41;5.00;99.90
10722;DHT22;5412;59.450;18.124;2023-10-19T11:02:20;4.90;99.90
10722;DHT22;5412;59.450;18.124;2023-10-19T11:04:47;4.90;99.90
10722;DHT22;5412;59.450;18.124;2023-10-19T11:07:19;4.90;99.90
10722;DHT22;5412;59.450;18.124;2023-10-19T11:09:47;4.90;99.90
10722;DHT22;5412;59.450;18.124;2023-10-19T11:12:14;4.90;99.90
10722;DHT22;5412;59.450;18.124;2023-10-19T11:14:56;5.00;99.90
10722;DHT22;5412;59.450;18.124;2023-10-19T11:17:24;5.00;99.90
10722;DHT22;5412;59.450;18.124;2023-10-19T11:19:57;5.00;99.90
10722;DHT22;5412;59.450;18.124;2023-10-19T11:22:26;4.90;99.90
10722;DHT22;5412;59.450;18.124;2023-10-19T11:24:55;5.00;99.90
10722;DHT22;5412;59.450;18.124;2023-10-19T11:27:28;5.00;99.90
10722;DHT22;5412;59.450;18.124;2023-10-19T11:29:58;5.10;99.90
10722;DHT22;5412;59.450;18.124;2023-10-19T11:32:36;5.50;99.90
10722;DHT22;5412;59.450;18.124;2023-10-19T11:35:06;5.40;99.90
10722;DHT22;5412;59.450;18.124;2023-10-19T11:37:51;5.40;99.90
10722;DHT22;5412;59.450;18.124;2023-10-19T11:40:21;5.20;99.90
10722;DHT22;5412;59.450;18.124;2023-10-19T11:42:51;5.10;99.90
10722;DHT22;5412;59.450;18.124;2023-10-19T11:45:18;4.90;99.90
10722;DHT22;5412;59.450;18.124;2023-10-19T11:47:44;5.00;99.90
10722;DHT22;5412;59.450;18.124;2023-10-19T11:50:11;5.20;99.90
10722;DHT22;5412;59.450;18.124;2023-10-19T11:52:40;5.30;99.90
10722;DHT22;5412;59.450;18.124;2023-10-19T11:55:06;5.50;99.90
10722;DHT22;5412;59.450;18.124;2023-10-19T11:57:34;5.40;99.90
10722;DHT22;5412;59.450;18.124;2023-10-19T12:00:00;5.30;99.90
10722;DHT22;5412;59.450;18.124;2023-10-19T12:02:26;5.00;99.90
10722;DHT22;5412;59.450;18.124;2023-10-19T12:04:52;5.10;99.90
10722;DHT22;5412;59.450;18.124;2023-10-19T12:07:18;5.20;99.90
10722;DHT22;5412;59.450;18.124;2023-10-19T12:09:44;5.20;99.90
10722;DHT22;5412;59.450;18.124;2023-10-19T12:12:10;5.10;99.90
10722;DHT22;5412;59.450;18.124;2023-10-19T12:14:36;5.00;99.90
10722;DHT22;5412;59.450;18.124;2023-10-19T12:17:02;4.80;99.90
10722;DHT22;5412;59.450;18.124;2023-10-19T12:19:31;5.10;99.90
10722;DHT22;5412;59.450;18.124;2023-10-19T12:21:57;4.90;99.90
10722;DHT22;5412;59.450;18.124;2023-10-19T12:24:23;4.90;99.90
10722;DHT22;5412;59.450;18.124;2023-10-19T12:26:50;4.90;99.90
10722;DHT22;5412;59.450;18.124;2023-10-19T12:29:17;4.70;99.90
10722;DHT22;5412;59.450;18.124;2023-10-19T12:31:49;4.60;99.90
10722;DHT22;5412;59.450;18.124;2023-10-19T12:34:15;4.70;99.90
10722;DHT22;5412;59.450;18.124;2023-10-19T12:36:42;4.70;99.90
10722;DHT22;5412;59.450;18.124;2023-10-19T12:39:10;4.60;99.90
10722;DHT22;5412;59.450;18.124;2023-10-19T12:41:56;4.60;99.90
10722;DHT22;5412;59.450;18.124;2023-10-19T12:44:22;4.60;99.90
10722;DHT22;5412;59.450;18.124;2023-10-19T12:46:48;4.70;99.90
10722;DHT22;5412;59.450;18.124;2023-10-19T12:49:13;4.80;99.90
10722;DHT22;5412;59.450;18.124;2023-10-19T12:51:41;4.60;99.90
10722;DHT22;5412;59.450;18.124;2023-10-19T12:54:07;4.50;99.90
10722;DHT22;5412;59.450;18.124;2023-10-19T12:56:35;4.70;99.90
10722;DHT22;5412;59.450;18.124;2023-10-19T12:59:01;4.80;99.90
10722;DHT22;5412;59.450;18.124;2023-10-19T13:01:27;4.80;99.90
10722;DHT22;5412;59.450;18.124;2023-10-19T13:03:53;4.80;99.90
10722;DHT22;5412;59.450;18.124;2023-10-19T13:06:19;4.80;99.90
10722;DHT22;5412;59.450;18.124;2023-10-19T13:08:45;4.70;99.90
10722;DHT22;5412;59.450;18.124;2023-10-19T13:11:11;4.70;99.90
10722;DHT22;5412;59.450;18.124;2023-10-19T13:13:40;4.50;99.90
10722;DHT22;5412;59.450;18.124;2023-10-19T13:16:06;4.50;99.90
10722;DHT22;5412;59.450;18.124;2023-10-19T13:18:32;4.60;99.90
10722;DHT22;5412;59.450;18.124;2023-10-19T13:21:00;4.70;99.90
10722;DHT22;5412;59.450;18.124;2023-10-19T13:23:35;4.90;99.90
10722;DHT22;5412;59.450;18.124;2023-10-19T13:26:01;5.00;99.90
10722;DHT22;5412;59.450;18.124;2023-10-19T13:28:33;5.10;99.90
10722;DHT22;5412;59.450;18.124;2023-10-19T13:30:59;5.50;99.90
10722;DHT22;5412;59.450;18.124;2023-10-19T13:33:24;6.40;99.90
10722;DHT22;5412;59.450;18.124;2023-10-19T13:35:50;7.90;99.90
10722;DHT22;5412;59.450;18.124;2023-10-19T13:38:18;9.30;99.90
10722;DHT22;5412;59.450;18.124;2023-10-19T13:40:45;10.40;99.90
10722;DHT22;5412;59.450;18.124;2023-10-19T13:43:12;10.80;99.90
10722;DHT22;5412;59.450;18.124;2023-10-19T13:45:43;11.20;99.90
10722;DHT22;5412;59.450;18.124;2023-10-19T13:48:10;11.00;99.90
10722;DHT22;5412;59.450;18.124;2023-10-19T13:50:41;10.20;99.90
10722;DHT22;5412;59.450;18.124;2023-10-19T13:53:08;8.80;99.90
10722;DHT22;5412;59.450;18.124;2023-10-19T13:55:35;7.50;99.90
10722;DHT22;5412;59.450;18.124;2023-10-19T13:58:02;7.10;99.90
10722;DHT22;5412;59.450;18.124;2023-10-19T14:00:28;6.80;99.90
10722;DHT22;5412;59.450;18.124;2023-10-19T14:03:01;6.40;99.90
10722;DHT22;5412;59.450;18.124;2023-10-19T14:05:35;6.30;99.90
10722;DHT22;5412;59.450;18.124;2023-10-19T14:08:02;6.00;99.90
10722;DHT22;5412;59.450;18.124;2023-10-19T14:10:29;5.80;99.90
10722;DHT22;5412;59.450;18.124;2023-10-19T14:12:56;5.50;99.90
10722;DHT22;5412;59.450;18.124;2023-10-19T14:15:22;5.60;99.90
10722;DHT22;5412;59.450;18.124;2023-10-19T14:17:49;5.50;99.90
10722;DHT22;5412;59.450;18.124;2023-10-19T14:20:16;5.30;99.90
10722;DHT22;5412;59.450;18.124;2023-10-19T14:25:10;5.00;99.90
10722;DHT22;5412;59.450;18.124;2023-10-19T14:27:43;4.80;99.90
10722;DHT22;5412;59.450;18.124;2023-10-19T14:30:15;4.80;99.90
10722;DHT22;5412;59.450;18.124;2023-10-19T14:32:42;4.80;99.90
10722;DHT22;5412;59.450;18.124;2023-10-19T14:35:10;4.70;99.90
10722;DHT22;5412;59.450;18.124;2023-10-19T14:37:41;4.60;99.90
10722;DHT22;5412;59.450;18.124;2023-10-19T14:40:09;4.50;99.90
10722;DHT22;5412;59.450;18.124;2023-10-19T14:42:38;4.30;99.90
10722;DHT22;5412;59.450;18.124;2023-10-19T14:45:16;4.30;99.90
10722;DHT22;5412;59.450;18.124;2023-10-19T14:47:47;4.30;99.90
10722;DHT22;5412;59.450;18.124;2023-10-19T14:50:14;4.20;99.90
10722;DHT22;5412;59.450;18.124;2023-10-19T14:52:41;4.10;99.90
10722;DHT22;5412;59.450;18.124;2023-10-19T14:55:11;4.20;99.90
10722;DHT22;5412;59.450;18.124;2023-10-19T14:57:40;4.10;99.90
10722;DHT22;5412;59.450;18.124;2023-10-19T15:00:07;4.00;99.90
10722;DHT22;5412;59.450;18.124;2023-10-19T15:02:55;3.80;99.90
10722;DHT22;5412;59.450;18.124;2023-10-19T15:05:23;3.70;99.90
10722;DHT22;5412;59.450;18.124;2023-10-19T15:07:52;3.80;99.90
10722;DHT22;5412;59.450;18.124;2023-10-19T15:10:27;3.80;99.90
10722;DHT22;5412;59.450;18.124;2023-10-19T15:12:54;3.90;99.90
10722;DHT22;5412;59.450;18.124;2023-10-19T15:15:28;3.90;99.90
10722;DHT22;5412;59.450;18.124;2023-10-19T15:17:55;4.00;99.90
10722;DHT22;5412;59.450;18.124;2023-10-19T15:20:30;3.90;99.90
10722;DHT22;5412;59.450;18.124;2023-10-19T15:22:57;3.90;99.90
10722;DHT22;5412;59.450;18.124;2023-10-19T15:25:23;3.90;99.90
10722;DHT22;5412;59.450;18.124;2023-10-19T15:27:53;3.70;99.90
10722;DHT22;5412;59.450;18.124;2023-10-19T15:30:19;3.70;99.90
10722;DHT22;5412;59.450;18.124;2023-10-19T15:32:49;3.70;99.90
10722;DHT22;5412;59.450;18.124;2023-10-19T15:35:16;3.80;99.90
10722;DHT22;5412;59.450;18.124;2023-10-19T15:37:47;3.60;99.90
10722;DHT22;5412;59.450;18.124;2023-10-19T15:40:19;3.70;99.90
10722;DHT22;5412;59.450;18.124;2023-10-19T15:42:46;3.60;99.90
10722;DHT22;5412;59.450;18.124;2023-10-19T15:45:14;3.50;99.90
10722;DHT22;5412;59.450;18.124;2023-10-19T15:47:45;3.50;99.90
10722;DHT22;5412;59.450;18.124;2023-10-19T15:50:13;3.50;99.90
10722;DHT22;5412;59.450;18.124;2023-10-19T15:52:39;3.50;99.90
10722;DHT22;5412;59.450;18.124;2023-10-19T15:55:09;3.40;99.90
10722;DHT22;5412;59.450;18.124;2023-10-19T15:57:39;3.40;99.90
10722;DHT22;5412;59.450;18.124;2023-10-19T16:00:07;3.30;99.90
10722;DHT22;5412;59.450;18.124;2023-10-19T16:02:36;3.30;99.90
10722;DHT22;5412;59.450;18.124;2023-10-19T16:05:01;3.30;99.90
10722;DHT22;5412;59.450;18.124;2023-10-19T16:07:30;3.30;99.90
10722;DHT22;5412;59.450;18.124;2023-10-19T16:09:56;3.30;99.90
10722;DHT22;5412;59.450;18.124;2023-10-19T16:12:21;3.20;99.90
10722;DHT22;5412;59.450;18.124;2023-10-19T16:14:48;3.30;99.90
10722;DHT22;5412;59.450;18.124;2023-10-19T16:17:14;3.30;99.90
10722;DHT22;5412;59.450;18.124;2023-10-19T16:19:42;3.30;99.90